»·PEaware :: N293WK KRIV-KOXR

N293WK :: KRIV-KOXR

FLIGHT INFORMATION

Flight Status: Arrived
Operator: Privately registered:
United States
More flights under this callsign
Pilot: Vinnie C. (35885)
Aircraft: PIPER PA-28R-201 ARROW
(P28R)
More flights by this aircraft type
Origin: KRIV March ARB
United States
Destination: KOXR Oxnard
United States
More flights between these airports :: More routes between these airports
Route:
File this flight plan on PilotEdge
Remarks:
Altitude:
(Current/Filed)
6,500ft
Speed:
(Current/Filed)
128kts
Departed: 31-Aug-21 06:26 PM
Arrived: 31-Aug-21 07:26 PM
Distance/Time
Traveled:
99nm/1:00
Distance/Time
To Go:
Arrived

Flight Plot

Page will automatically refresh every two minutes.

Flight plan parsing failed; only flown route is shown


Map Options




Map Legend


Flown Route
Filed Route
Departure Airport
Arrival Airport
Navaid (VOR, NDB)
Fix

Horizontal Profiles

Position Reports

Time Latitude Longitude Heading Altitude Ground
Speed
31-Aug-21 18:13 33.894319 -117.256947 314 1522ft 0kts
31-Aug-21 18:15 33.894319 -117.256947 314 1522ft 0kts
31-Aug-21 18:15 33.894319 -117.256947 314 1522ft 0kts
31-Aug-21 18:16 33.894207 -117.257272 226 1522ft 11kts
31-Aug-21 18:17 33.890332 -117.257436 134 1520ft 23kts
31-Aug-21 18:18 33.885096 -117.251180 134 1510ft 25kts
31-Aug-21 18:19 33.881186 -117.248778 205 1503ft 4kts
31-Aug-21 18:21 33.875604 -117.252006 184 1503ft 18kts
31-Aug-21 18:22 33.870015 -117.248655 151 1498ft 26kts
31-Aug-21 18:22 33.865542 -117.247387 250 1489ft 0kts
31-Aug-21 18:23 33.865542 -117.247387 250 1489ft 0kts
31-Aug-21 18:24 33.865542 -117.247387 250 1489ft 0kts
31-Aug-21 18:25 33.870091 -117.251940 327 1519ft 80kts
31-Aug-21 18:26 33.892947 -117.267575 325 2319ft 96kts
31-Aug-21 18:27 33.918393 -117.279420 346 3117ft 102kts
31-Aug-21 18:28 33.943997 -117.291560 325 3951ft 99kts
31-Aug-21 18:29 33.966656 -117.310910 318 4794ft 101kts
31-Aug-21 18:30 33.988439 -117.332336 311 5576ft 100kts
31-Aug-21 18:31 34.005610 -117.358766 303 6277ft 100kts
31-Aug-21 18:32 34.023357 -117.386706 304 6686ft 117kts
31-Aug-21 18:33 34.045506 -117.418271 313 6725ft 124kts
31-Aug-21 18:34 34.068530 -117.449502 301 6803ft 124kts
31-Aug-21 18:35 34.078383 -117.488837 274 6852ft 123kts
31-Aug-21 18:36 34.079602 -117.530293 268 6877ft 123kts
31-Aug-21 18:37 34.079702 -117.571813 272 6859ft 124kts
31-Aug-21 18:38 34.082701 -117.613319 275 6865ft 124kts
31-Aug-21 18:39 34.087470 -117.654535 277 6864ft 123kts
31-Aug-21 18:40 34.092082 -117.695598 272 6858ft 123kts
31-Aug-21 18:41 34.091621 -117.736877 261 6878ft 122kts
31-Aug-21 18:42 34.086767 -117.777629 266 6853ft 123kts
31-Aug-21 18:43 34.087456 -117.818929 273 6842ft 123kts
31-Aug-21 18:44 34.090659 -117.859952 274 6855ft 122kts
31-Aug-21 18:45 34.096147 -117.900725 287 6859ft 122kts
31-Aug-21 18:46 34.116568 -117.934413 305 6839ft 125kts
31-Aug-21 18:47 34.136513 -117.968391 294 6860ft 123kts
31-Aug-21 18:48 34.147262 -118.007457 284 6866ft 122kts
31-Aug-21 18:49 34.154900 -118.047215 278 6874ft 121kts
31-Aug-21 18:50 34.159139 -118.087650 273 6879ft 121kts
31-Aug-21 18:51 34.159337 -118.128553 267 6854ft 121kts
31-Aug-21 18:52 34.160137 -118.169343 274 6820ft 122kts
31-Aug-21 18:53 34.163304 -118.210334 275 6817ft 121kts
31-Aug-21 18:54 34.172500 -118.249450 295 6821ft 123kts
31-Aug-21 18:55 34.189916 -118.284873 300 6911ft 122kts
31-Aug-21 18:56 34.204717 -118.322229 291 6916ft 122kts
31-Aug-21 18:57 34.218807 -118.360414 295 6833ft 124kts
31-Aug-21 18:58 34.235377 -118.396972 297 6774ft 124kts
31-Aug-21 18:59 34.250248 -118.434142 286 6766ft 122kts
31-Aug-21 19:00 34.256560 -118.474517 275 6746ft 122kts
31-Aug-21 19:01 34.259078 -118.515518 273 6735ft 122kts
31-Aug-21 19:02 34.261038 -118.556512 274 6758ft 121kts
31-Aug-21 19:03 34.263969 -118.597315 276 6785ft 121kts
31-Aug-21 19:04 34.268446 -118.638009 278 6811ft 122kts
31-Aug-21 19:05 34.271211 -118.679057 272 6838ft 123kts
31-Aug-21 19:06 34.270721 -118.720495 273 6863ft 123kts
31-Aug-21 19:07 34.280568 -118.759192 305 6887ft 123kts
31-Aug-21 19:08 34.303243 -118.790073 314 6908ft 123kts
31-Aug-21 19:09 34.330888 -118.814725 325 6922ft 122kts
31-Aug-21 19:10 34.360821 -118.834831 328 6861ft 124kts
31-Aug-21 19:11 34.379527 -118.869989 292 6241ft 131kts
31-Aug-21 19:12 34.389777 -118.912084 278 5528ft 131kts
31-Aug-21 19:13 34.387851 -118.956168 261 4859ft 131kts
31-Aug-21 19:14 34.380034 -118.999127 251 4280ft 131kts
31-Aug-21 19:15 34.364715 -119.038903 238 3668ft 130kts
31-Aug-21 19:16 34.345141 -119.073925 232 3404ft 120kts
31-Aug-21 19:17 34.324731 -119.106444 229 3275ft 120kts
31-Aug-21 19:18 34.303901 -119.137752 230 3190ft 119kts
31-Aug-21 19:19 34.282917 -119.168724 230 3091ft 120kts
31-Aug-21 19:20 34.264268 -119.199337 229 2453ft 110kts
31-Aug-21 19:21 34.238730 -119.217042 188 1723ft 105kts
31-Aug-21 19:22 34.218561 -119.199082 88 1191ft 103kts
31-Aug-21 19:23 34.209345 -119.178399 185 895ft 84kts
31-Aug-21 19:24 34.200799 -119.197440 271 191ft 67kts
31-Aug-21 19:25 34.200483 -119.210960 244 40ft 12kts
31-Aug-21 19:26 34.200059 -119.211823 241 37ft 0kts
31-Aug-21 19:27 34.199823 -119.209942 90 40ft 17kts
31-Aug-21 19:28 34.199139 -119.206423 99 43ft 0kts

Navigation Log

Ident Type
Flight plan parsing failed, navigation log unavailable